Iris Victoria — V7TS8 — position and weather

sailwx.info

Track history (hours):
 
Tides and Currents Weather Stations Pressure Air Temp Water Temp Dewpoint Dewpoint Depression Visibility Wind Speed Wind Dir Waves Ship Positions

Iris Victoria

Last reported at 2014-Sep-19 00:17 UTC. Time now 2014-Sep-20 01:54 UTC.
Position N 36°38' E 026°35'.

Length 228 m; draft 13.2 m.

Type: Ship. MMSI: 538003876.

Date/timePositionNaut miles runAvg speedWind from/ knotsBaromVisibWave heightAir tempDewpointWater temp
2014-Sep-19 00:17N 36°38' E 026°35'1013.5
2014-Sep-18 23:33N 36°44' E 026°27'1413.4
2014-Sep-18 22:29N 36°55' E 026°15'1213.4
2014-Sep-18 21:33N 37°06' E 026°07'1413.6
2014-Sep-18 20:33N 37°18' E 025°60'1313.1
2014-Sep-18 19:33N 37°30' E 025°52'1313.1
2014-Sep-18 18:32N 37°42' E 025°45'227 8.1
2014-Sep-17 14:23N 40°52' E 028°27'1012.5
2014-Sep-17 13:33N 40°54' E 028°40'1110.9
2014-Sep-17 12:32N 40°56' E 028°54'3 2.7
2014-Sep-17 11:33N 40°58' E 028°57'  
2014-Sep-11 02:33N 43°18' E 035°02'2814.0
2014-Sep-11 00:33N 43°12' E 034°25'23613.7
2014-Sep-10 07:18N 41°35' E 029°34'1013.4
2014-Sep-10 06:33N 41°28' E 029°24'  
Track history (hours):
 
Tides and Currents Weather Stations Pressure Air Temp Water Temp Dewpoint Dewpoint Depression Visibility Wind Speed Wind Dir Waves Ship Positions

Iris Victoria

Last reported at 2014-Sep-19 00:17 UTC. Time now 2014-Sep-20 01:54 UTC.
Position N 36°38' E 026°35'.

Length 228 m; draft 13.2 m.

Type: Ship. MMSI: 538003876.

Date/timePositionNaut miles runAvg speedWind from/ knotsBaromVisibWave heightAir tempDewpointWater temp
2014-Sep-19 00:17N 36°38' E 026°35'1013.5
2014-Sep-18 23:33N 36°44' E 026°27'1413.4
2014-Sep-18 22:29N 36°55' E 026°15'1213.4
2014-Sep-18 21:33N 37°06' E 026°07'1413.6
2014-Sep-18 20:33N 37°18' E 025°60'1313.1
2014-Sep-18 19:33N 37°30' E 025°52'1313.1
2014-Sep-18 18:32N 37°42' E 025°45'227 8.1
2014-Sep-17 14:23N 40°52' E 028°27'1012.5
2014-Sep-17 13:33N 40°54' E 028°40'1110.9
2014-Sep-17 12:32N 40°56' E 028°54'3 2.7
2014-Sep-17 11:33N 40°58' E 028°57'  
2014-Sep-11 02:33N 43°18' E 035°02'2814.0
2014-Sep-11 00:33N 43°12' E 034°25'23613.7
2014-Sep-10 07:18N 41°35' E 029°34'1013.4
2014-Sep-10 06:33N 41°28' E 029°24'  

Dump ship's entire track history